This is the latest recevied weather packets stored in our database for station/object IU8HRV-10. If no packets are shown the sender has not sent any weather packets the latest 1 day(s).
| Time | Temp. | Humidity | Pressure | Rain* | Wind** | Luminosity | Snow |
|---|---|---|---|---|---|---|---|
| 1778105446 | 20.56° C | 48% | 1016 hPa | - | - | - | - |
| 1778104545 | 21.11° C | 48% | 1015 hPa | - | - | - | - |
| 1778103644 | 21.11° C | 48% | 1015 hPa | - | - | - | - |
| 1778102743 | 21.67° C | 48% | 1015 hPa | - | - | - | - |
| 1778100040 | 21.67° C | 49% | 1016 hPa | - | - | - | - |
| 1778091930 | 25.56° C | 38% | 1015 hPa | - | - | - | - |
| 1778091028 | 25.56° C | 39% | 1015 hPa | - | - | - | - |
| 1778090127 | 25.56° C | 39% | 1015 hPa | - | - | - | - |
| 1778089226 | 26.11° C | 39% | 1015 hPa | - | - | - | - |
| 1778081116 | 27.78° C | 38% | 1016 hPa | - | - | - | - |
| 1778079314 | 27.78° C | 38% | 1015 hPa | - | - | - | - |
| 1778078413 | 28.33° C | 37% | 1015 hPa | - | - | - | - |
| 1778077512 | 28.33° C | 37% | 1015 hPa | - | - | - | - |
| 1778076611 | 28.89° C | 36% | 1015 hPa | - | - | - | - |
| 1778074808 | 29.44° C | 36% | 1015 hPa | - | - | - | - |
| 1778073907 | 29.44° C | 36% | 1015 hPa | - | - | - | - |
| 1778073006 | 28.89° C | 36% | 1015 hPa | - | - | - | - |
| 1778064896 | 25° C | 40% | 1016 hPa | - | - | - | - |
| 1778063094 | 24.44° C | 41% | 1016 hPa | - | - | - | - |
| 1778062193 | 24.44° C | 40% | 1016 hPa | - | - | - | - |
| 1778061292 | 23.89° C | 40% | 1016 hPa | - | - | - | - |
| 1778058588 | 23.33° C | 40% | 1016 hPa | - | - | - | - |
| 1778054082 | 22.78° C | 42% | 1016 hPa | - | - | - | - |
| 1778053181 | 22.78° C | 42% | 1016 hPa | - | - | - | - |
| 1778052280 | 22.78° C | 42% | 1016 hPa | - | - | - | - |
* Rain since midnight (hover to see other rain measurements)
** Current wind speed in m/s (hover to see current wind gust speed)